Atlantic Beach, Florida
Current Conditions -  °F | °C
As of 2:52 AM on Saturday 25 Oct 2014 (Local Time) from KNRB Reporting Station
Clear Clear  
Wind Chill: 60°   Ceiling: Unl
Heat Index: 60°   Visibility: 10mi
Dew Point: 56°   Wind: 5mph
Humidity: 86%   Direction: 280°W
Pressure: 29.98"   Gusts: NA
Location:  30.33°N, 81.4°W
Report Text: KNRB 250652Z AUTO 28004KT 10SM CLR 16/13 A2998 RMK AO2 SLP150 T01560133
Loading
Personal Weather Stations






























Interactive Weather Map
Tropical Storm Tracking
New forecast layout! Learn more

10-Day Weather Forecast

Advertisements
Track Severe Weather on mobile